Linthicum Heights, Maryland
Current Conditions -  °F | °C
As of 12:54 AM on Sunday 21 Dec 2014 (Local Time) from KBWI Reporting Station
Broken Clouds Broken Clouds  
Wind Chill: 30°   Ceiling: 8000
Heat Index: 30°   Visibility: 9mi
Dew Point: 24°   Wind: 0mph
Humidity: 79%   Direction: NA
Pressure: 30.29"   Gusts: NA
Location:  39.2°N, 76.66°W
Report Text: KBWI 210554Z 00000KT 9SM BKN080 BKN120 M01/M04 A3029 RMK AO2 SLP259 T10111044 10011 21017 58000
Loading
Personal Weather Stations






























Interactive Weather Map New forecast layout! Learn more

10-Day Weather Forecast

Advertisements
Track Severe Weather on mobile